This is the latest recevied weather packets stored in our database for station/object SP9POL-3. If no packets are shown the sender has not sent any weather packets the latest 10 day(s).
| Time | Temp. | Humidity | Pressure | Rain* | Wind** | Luminosity | Snow |
|---|---|---|---|---|---|---|---|
| 1777918444 | 20.56° C | 27% | 1009.8 hPa | - | - | - | - |
| 1777916764 | 21.67° C | 26% | 1009.7 hPa | - | - | - | - |
| 1777915084 | 22.78° C | 24% | 1009.6 hPa | - | - | - | - |
| 1777913404 | 23.33° C | 22% | 1009.6 hPa | - | - | - | - |
| 1777911724 | 24.44° C | 21% | 1009.6 hPa | - | - | - | - |
| 1777910044 | 26.67° C | 19% | 1009.8 hPa | - | - | - | - |
| 1777908363 | 29.44° C | 15% | 1009.8 hPa | - | - | - | - |
| 1777906683 | 31.11° C | 14% | 1010 hPa | - | - | - | - |
| 1777905003 | 27.22° C | 18% | 1010.1 hPa | - | - | - | - |
| 1777903323 | 26.67° C | 18% | 1010.3 hPa | - | - | - | - |
| 1777901643 | 25° C | 20% | 1010.5 hPa | - | - | - | - |
| 1777899962 | 25° C | 19% | 1010.8 hPa | - | - | - | - |
| 1777898282 | 25° C | 20% | 1011.1 hPa | - | - | - | - |
| 1777896602 | 25.56° C | 20% | 1011.2 hPa | - | - | - | - |
| 1777894922 | 25° C | 20% | 1011.4 hPa | - | - | - | - |
| 1777893242 | 24.44° C | 21% | 1011.5 hPa | - | - | - | - |
| 1777891561 | 22.22° C | 24% | 1011.8 hPa | - | - | - | - |
| 1777889881 | 21.11° C | 25% | 1011.9 hPa | - | - | - | - |
| 1777888201 | 20° C | 26% | 1012.3 hPa | - | - | - | - |
| 1777886521 | 19.44° C | 27% | 1012.6 hPa | - | - | - | - |
| 1777884841 | 18.33° C | 28% | 1012.5 hPa | - | - | - | - |
| 1777883161 | 17.78° C | 29% | 1012.7 hPa | - | - | - | - |
| 1777881481 | 17.22° C | 30% | 1012.8 hPa | - | - | - | - |
| 1777879801 | 16.67° C | 31% | 1012.8 hPa | - | - | - | - |
| 1777878120 | 16.11° C | 32% | 1012.9 hPa | - | - | - | - |
* Rain since midnight (hover to see other rain measurements)
** Current wind speed in m/s (hover to see current wind gust speed)